createdAt,value
2018-10-12T00:00:49.555Z,4.0
2018-10-12T00:17:36.740Z,4.0
2018-10-12T00:34:24.170Z,4.0
2018-10-12T00:51:10.995Z,4.0
2018-10-12T01:07:58.146Z,4.0
2018-10-12T01:24:45.215Z,4.0
2018-10-12T01:41:32.053Z,4.0
2018-10-12T01:58:19.091Z,3.9
2018-10-12T02:15:06.760Z,3.9
2018-10-12T02:31:52.745Z,3.9
2018-10-12T02:48:39.588Z,3.9
2018-10-12T03:05:26.393Z,3.9
2018-10-12T03:22:13.057Z,3.9
2018-10-12T03:38:59.916Z,3.9
2018-10-12T03:55:46.532Z,3.9
2018-10-12T04:12:33.472Z,3.9
2018-10-12T04:29:20.106Z,3.9
2018-10-12T04:46:07.468Z,3.9
2018-10-12T05:02:53.255Z,3.8
2018-10-12T05:19:39.866Z,3.8
2018-10-12T05:36:26.794Z,3.8
2018-10-12T05:53:13.094Z,3.8
2018-10-12T06:09:59.717Z,3.8
2018-10-12T06:26:46.340Z,3.8
2018-10-12T06:43:33.131Z,3.9
2018-10-12T07:00:19.894Z,3.9
2018-10-12T07:17:06.794Z,4.1
2018-10-12T07:33:53.411Z,4.2
2018-10-12T07:50:40.333Z,4.3
2018-10-12T08:07:27.766Z,4.4
2018-10-12T08:24:15.333Z,4.5
2018-10-12T08:41:06.209Z,4.5
2018-10-12T08:57:50.400Z,4.5
2018-10-12T09:14:38.702Z,4.6
2018-10-12T09:31:31.676Z,4.6
2018-10-12T09:48:14.697Z,4.6
2018-10-12T10:05:03.245Z,4.6
2018-10-12T10:21:52.014Z,4.6
2018-10-12T10:38:40.673Z,4.6
2018-10-12T10:55:29.526Z,4.6
2018-10-12T11:12:18.548Z,4.6
2018-10-12T11:29:07.538Z,4.6
2018-10-12T11:45:57.423Z,4.6
2018-10-12T12:02:46.566Z,4.6
2018-10-12T12:19:36.024Z,4.6
2018-10-12T12:36:25.600Z,4.6
2018-10-12T12:53:15.213Z,4.6
2018-10-12T13:10:04.730Z,4.6
2018-10-12T13:26:54.185Z,4.6
2018-10-12T13:43:43.770Z,4.6
2018-10-12T14:00:33.332Z,4.6
2018-10-12T14:17:22.960Z,4.6
2018-10-12T14:34:12.520Z,4.5
2018-10-12T14:51:02.364Z,4.5
2018-10-12T15:07:52.001Z,4.5
2018-10-12T15:24:41.387Z,4.5
2018-10-12T15:41:30.872Z,4.5
2018-10-12T15:58:21.257Z,4.5
2018-10-12T16:15:09.938Z,4.4
2018-10-12T16:32:00.325Z,4.4
2018-10-12T16:48:49.696Z,4.4
2018-10-12T17:05:39.221Z,4.4
2018-10-12T17:22:28.911Z,4.3
2018-10-12T17:39:18.466Z,4.3
2018-10-12T17:56:07.874Z,4.3
2018-10-12T18:12:57.417Z,4.3
2018-10-12T18:29:46.766Z,4.3
2018-10-12T18:46:35.824Z,4.2
2018-10-12T19:03:24.314Z,4.2
2018-10-12T19:20:12.981Z,4.2
2018-10-12T19:37:01.564Z,4.2
2018-10-12T19:53:50.109Z,4.2
2018-10-12T20:10:38.736Z,4.2
2018-10-12T20:27:27.514Z,4.2
2018-10-12T20:44:15.623Z,4.2
2018-10-12T21:01:04.473Z,4.2
2018-10-12T21:17:52.743Z,4.2
2018-10-12T21:34:41.220Z,4.1
2018-10-12T21:51:29.687Z,4.1
2018-10-12T22:08:18.075Z,4.1
2018-10-12T22:25:06.500Z,4.1
2018-10-12T22:41:56.197Z,4.1
2018-10-12T22:58:43.413Z,4.1
2018-10-12T23:15:32.129Z,4.1
2018-10-12T23:32:19.910Z,4.1
2018-10-12T23:49:07.805Z,4.1
